x

Halifax Harbour (44258) Wave Buoy

3:00am - Tue 21st Apr 2015 All times are EDT. -4 hours from GMT.

  • Sig Wave height 2.6ft
  • Peak Period 4s
  • Wind
    13mph, 18mph gusts
  • Air Temp 37°f
  • Sea Pressure 1026mb
  • Halifax Harbour
  • Halifax Harbour

More Historic Weather Station data

Upgrade to MSW Pro to gain access to the past 30 days of data for over 8000 Wavebouys and Weather Stations around the globe.

Join Pro

Comparision Forecast

View Surf forecast
   
Tue 04/21 3:00am 2.5ft 4s 13 18 mph 1026mb 37f
2:00am 2.5ft 4s 13 16 mph 1026.6mb 37f
1:00am 2.5ft 3s 11 13 mph 1027.5mb 37f
12:00am 2ft 3s 11 13 mph 1027.4mb 37f
Mon 04/20 11:00pm 2.5ft 3s 13
mph
1027.6mb 36f
10:00pm 2ft 3s 13
mph
1027.8mb 35f
9:00pm 2ft 8s 13 16 mph 1028.1mb 34f
8:00pm 2ft 10s 13 16 mph 1028mb 34f
7:00pm 1.6ft 10s 13
mph
1028.1mb 33f
6:00pm 1.6ft 10s 9 11 mph 1028.7mb 33f
5:00pm 1.6ft 6s 9
mph
1028.5mb 33f
4:00pm 1.3ft 12s 4 7 mph 1028.2mb 32f
3:00pm 1.3ft 8s 9
mph
1028.1mb 34f
2:00pm 1.3ft 8s 7 9 mph 1028.2mb 37f
1:00pm 1.3ft 10s 7 9 mph 1028.3mb 37f
12:00pm 1.6ft 12s 7 9 mph 1027.7mb 38f
11:00am 1.3ft 7s 4 7 mph 1027.9mb 37f
10:00am 1.6ft 8s 4
mph
1028.1mb 36f
9:00am 1.6ft 8s 2
mph
1027.6mb 36f
8:00am 1.6ft 8s 4 7 mph 1027.4mb 35f
7:00am 1.6ft 8s 4
mph
1026.8mb 35f
6:00am 1.6ft 8s 4 9 mph 1026.2mb 33f
5:00am 1.6ft 7s 2 4 mph 1025.8mb 35f
4:00am 1.6ft 8s 4
mph
1025.3mb 35f
3:00am 2ft 8s 4 9 mph 1025.1mb 34f
2:00am 2.5ft 8s 4 7 mph 1024.9mb 34f
1:00am 2.5ft 8s 11 13 mph 1024.7mb 35f
12:00am 2.5ft 8s 9 11 mph 1024.9mb 35f
Sun 04/19 11:00pm 2.5ft 8s 7 9 mph 1025mb 35f
10:00pm 2.5ft 8s 13 16 mph 1025mb 35f
9:00pm 2.5ft 8s 13 16 mph 1024.5mb 35f
8:00pm 2.5ft 8s 16 20 mph 1024mb 35f
7:00pm 2.5ft 8s 13 18 mph 1023.2mb 35f
6:00pm 2.5ft 9s 13 16 mph 1022.9mb 35f
5:00pm 2.5ft 8s 13 16 mph 1022.1mb 35f
4:00pm 2.5ft 8s 9 11 mph 1022mb 35f
3:00pm 3ft 8s 13 16 mph 1022mb 34f
2:00pm 3ft 8s 13 16 mph 1022.2mb 35f
1:00pm 3ft 8s 7 9 mph 1022mb 35f
12:00pm 3ft 6s 4
mph
1021.9mb 36f
11:00am 3.5ft 8s 4 7 mph 1022.1mb 35f
10:00am 3.5ft 8s 9
mph
1022.1mb 34f
9:00am 3.5ft 8s 13 16 mph 1021.8mb 33f
8:00am 3.5ft 9s 16 18 mph 1021.6mb 32f
7:00am  -   -  13
mph
1020.8mb 31f
6:00am 3.5ft 8s 13 16 mph 1019.9mb 31f
5:00am 3.5ft 9s 11 13 mph 1019mb 31f
4:00am 3.5ft 8s 11 13 mph 1018.4mb 31f
3:00am 4ft 7s 13 16 mph 1017.9mb 31f
2:00am 4.5ft 8s 11 13 mph 1017.8mb 31f
1:00am 4ft 8s 16 18 mph 1017.3mb 32f
12:00am 4ft 7s 18 20 mph 1016.4mb 33f
Sat 04/18 11:00pm 4ft 8s 16 18 mph 1016.7mb 34f
10:00pm 4ft 8s 11 16 mph 1016.5mb 36f
9:00pm 4ft 8s 9
mph
1016.4mb 37f
8:00pm 4ft 9s 9 13 mph 1016.2mb 38f
7:00pm 4.5ft 8s 13 16 mph 1014.9mb 39f
6:00pm 4.5ft 8s 9 11 mph 1014.5mb 40f
5:00pm 4.5ft 8s 2 4 mph 1013.5mb 39f
4:00pm 4.5ft 8s 4 7 mph 1013.6mb 39f
3:00pm 4.5ft 9s 7 9 mph 1013.5mb 40f
2:00pm 4.5ft 8s 4 9 mph 1013.4mb 43f
1:00pm 4.5ft 8s 4 7 mph 1013.8mb 42f
12:00pm 4.5ft 8s 7
mph
1013.7mb 41f
11:00am 4.5ft 8s 9 11 mph 1012.8mb 40f
10:00am 4.5ft 8s 11 13 mph 1012.4mb 40f
9:00am 4.5ft 8s 9 11 mph 1012mb 38f
8:00am 4ft 7s 9 11 mph 1011.7mb 38f
7:00am 3.5ft 7s 13 16 mph 1010.9mb 38f
6:00am 4ft 7s 7 9 mph 1010mb 37f
5:00am 4ft 7s 4 7 mph 1008.9mb 35f
4:00am 4.5ft 7s 4 7 mph 1008.2mb 37f
3:00am 4.5ft 7s 4
mph
1007.6mb 37f
2:00am 4.5ft 7s 4 11 mph 1007.6mb 38f
1:00am 4.5ft 7s 13 16 mph 1007.1mb 39f
12:00am 4.5ft 6s 13
mph
1007.5mb 37f
Fri 04/17 11:00pm 4.5ft 6s 11 13 mph 1007.8mb 37f
10:00pm 4.5ft 6s 11 13 mph 1007.7mb 37f
9:00pm 4.5ft 6s 16 18 mph 1007.8mb 37f
8:00pm 4.5ft 7s 7 9 mph 1008.1mb 36f
7:00pm 5ft 7s 11 13 mph 1007.8mb 36f
6:00pm 5ft 6s 16 18 mph 1007.7mb 37f
5:00pm 6ft 6s 18
mph
1007.8mb 37f
4:00pm 6ft 6s 20 25 mph 1007.9mb 37f
3:00pm 7ft 7s 18 22 mph 1008.9mb 37f
2:00pm 6ft 6s 18 22 mph 1009.8mb 38f
1:00pm 5ft 6s 20 25 mph 1011.1mb 38f
12:00pm 5ft 6s 20 22 mph 1011.9mb 37f
11:00am 5ft 6s 22 25 mph 1012.8mb 37f
10:00am 5ft 5s 25 29 mph 1013.1mb 37f
9:00am 5ft 5s 22 27 mph 1014.6mb 36f